Main page
METAR-TAF:

METAR-TAF

Airports :

Getafe Air Base

Madrid-Getafe, Spain

latitude: 40-18N, longitude: 003-43W, elevation: 620 m

Current weather observation

The report was made 54 minutes ago, at 21:00 UTC
Wind 16 kt from the North/Northeast, varying between North and Northeast
Temperature 12°C
Humidity 28%
Pressure 1019 hPa
Visibility 10 km or more
no clouds below 1500 m and no cumulonimbus

METAR: LEGT 222100Z AUTO 02016KT 350V050 CAVOK 12/M06 Q1019

Time: 23:54 (21:54 UTC)

Forecast

The report was made 4 hours and 54 minutes ago, at 17:00 UTC
Forecast valid from 22 at 18 UTC to 23 at 18 UTC
Wind 10 kt from the East/Northeast
Visibility 10 km or more
no clouds below 1500 m and no cumulonimbus
Probability 40% :
Temporary
from 22 at 18 UTC to 23 at 02 UTC
Wind 15 kt from the Northeast with gusts up to 25 kt
Becoming
from 23 at 02 UTC to 23 at 04 UTC
Wind 5 kt from variable directions

TAF: LEGT 221700Z 2218/2318 06010KT CAVOK TX19/2315Z TN03/2306Z PROB40 TEMPO 2218/2302 04015G25KT BECMG 2302/2304 VRB05KT

Weather observations and forecasts of more than 4000 airports (METAR and TAF reports).

The available stations are represented by yellow and red dots on the map.

Hover mouse over dot to see the name of the station.

Then click to see weather observations and forecasts.

To change the map : click on the green buttons with a black cross to zoom in, on the green button with a dash to zoom out, or on the green arrows for adjacent maps.


METAR-TAF: